Time;durP1;ratioP1;P1;durP2;ratioP2;P2;SDS_P1;SDS_P2;PMS_P1;PMS_P2;Temp;Humidity;BMP_temperature;BMP_pressure;BME280_temperature;BME280_humidity;BME280_pressure;Samples;Min_cycle;Max_cycle;Signal;HPM_P1;HPM_P2
2021/01/28 00:00:41;;;;;;;15.90;11.78;;;;;;;1.96;69.32;98113.58;1764921;81;21136;-44
2021/01/28 00:03:11;;;;;;;14.85;11.95;;;;;;;1.92;69.36;98113.47;1765184;81;21165;-44
2021/01/28 00:05:43;;;;;;;17.48;12.07;;;;;;;1.89;69.43;98104.77;1764715;81;21167;-45
2021/01/28 00:08:13;;;;;;;13.98;10.40;;;;;;;1.82;69.47;98108.56;1764844;81;21126;-45
2021/01/28 00:10:41;;;;;;;13.37;10.20;;;;;;;1.76;69.57;98099.19;1765214;81;21127;-45
2021/01/28 00:13:11;;;;;;;13.62;10.50;;;;;;;1.77;69.69;98089.28;1764928;81;21092;-45
2021/01/28 00:15:40;;;;;;;15.18;11.30;;;;;;;1.80;69.62;98073.36;1765722;79;21368;-45
2021/01/28 00:18:10;;;;;;;13.72;10.43;;;;;;;1.77;69.69;98075.38;1765069;80;21483;-45
2021/01/28 00:20:43;;;;;;;14.87;10.65;;;;;;;1.71;69.83;98080.70;1764919;81;21004;-45
2021/01/28 00:23:12;;;;;;;14.43;10.48;;;;;;;1.66;69.93;98082.25;1765006;81;21609;-45
2021/01/28 00:25:40;;;;;;;14.18;10.95;;;;;;;1.59;70.12;98071.35;1764976;81;21127;-45
2021/01/28 00:28:11;;;;;;;15.08;10.30;;;;;;;1.60;70.20;98061.65;1764885;80;21275;-45
2021/01/28 00:30:42;;;;;;;15.72;10.93;;;;;;;1.61;70.17;98059.20;1793351;79;21032;-45
2021/01/28 00:33:14;;;;;;;13.53;10.28;;;;;;;1.61;70.06;98053.86;1796448;79;21017;-45
2021/01/28 00:35:46;;;;;;;14.90;10.82;;;;;;;1.56;70.14;98050.08;1796293;79;21009;-45
2021/01/28 00:38:21;;;;;;;14.63;11.08;;;;;;;1.50;70.32;98042.05;1796417;79;21147;-45
2021/01/28 00:40:52;;;;;;;15.10;11.08;;;;;;;1.44;70.53;98044.73;1796470;79;21358;-45
2021/01/28 00:43:21;;;;;;;15.38;11.20;;;;;;;1.40;70.75;98059.86;1796233;79;21143;-44
2021/01/28 00:45:49;;;;;;;13.60;10.50;;;;;;;1.36;70.88;98054.92;1795787;79;20997;-45
2021/01/28 00:48:20;;;;;;;14.25;10.40;;;;;;;1.38;70.99;98054.61;1796330;79;21008;-45
2021/01/28 00:50:50;;;;;;;14.60;11.00;;;;;;;1.43;71.05;98055.18;1796943;79;21522;-44
2021/01/28 00:53:18;;;;;;;13.55;10.88;;;;;;;1.46;71.11;98059.06;1796392;79;21429;-45
2021/01/28 00:55:46;;;;;;;16.52;11.33;;;;;;;1.40;71.17;98049.73;1796166;79;21650;-44
2021/01/28 00:58:24;;;;;;;12.40;10.13;;;;;;;1.51;71.13;98045.50;1795795;79;21029;-45
2021/01/28 01:00:54;;;;;;;13.78;10.58;;;;;;;1.54;71.07;98031.50;1796512;79;21103;-45
2021/01/28 01:03:24;;;;;;;;;;;;;;;1.59;71.00;98033.95;1799006;79;21198;-45
2021/01/28 01:05:53;;;;;;;14.83;10.90;;;;;;;1.59;70.98;98025.94;1796595;79;22794;-45
2021/01/28 01:08:30;;;;;;;14.25;10.03;;;;;;;1.46;71.26;98034.48;1796274;79;20965;-45
2021/01/28 01:11:07;;;;;;;14.83;10.38;;;;;;;1.47;71.39;98031.25;1794912;79;21159;-45
2021/01/28 01:13:38;;;;;;;14.35;10.38;;;;;;;1.51;71.33;98030.81;1796410;79;21147;-45
2021/01/28 01:16:09;;;;;;;14.05;10.28;;;;;;;1.57;71.09;98019.59;1793568;79;21122;-45
2021/01/28 01:18:40;;;;;;;15.70;12.10;;;;;;;1.58;71.00;98027.83;1774572;79;22129;-45
2021/01/28 01:21:08;;;;;;;12.90;9.68;;;;;;;1.55;71.09;98035.73;1796419;79;21159;-44
2021/01/28 01:23:37;;;;;;;13.68;10.35;;;;;;;1.55;71.12;98039.74;1796638;79;21175;-45
2021/01/28 01:26:07;;;;;;;;;;;;;;;1.56;71.20;98035.38;1798947;79;21094;-44
2021/01/28 01:28:35;;;;;;;13.35;10.50;;;;;;;1.63;71.04;98039.63;1796761;79;20510;-45
2021/01/28 01:31:08;;;;;;;13.90;10.80;;;;;;;1.59;71.17;98040.63;1775308;79;21194;-44
2021/01/28 01:33:38;;;;;;;14.73;10.45;;;;;;;1.60;71.19;98039.50;1796563;79;21159;-45
2021/01/28 01:36:16;;;;;;;15.23;10.72;;;;;;;1.64;71.18;98026.51;1835983;78;22663;-43
2021/01/28 01:38:46;;;;;;;13.00;10.20;;;;;;;1.61;71.24;98015.69;1807463;79;26646;-43
2021/01/28 01:41:15;;;;;;;13.03;10.72;;;;;;;1.57;71.29;98006.78;1808222;79;21380;-43
2021/01/28 01:43:45;;;;;;;14.07;10.32;;;;;;;1.57;71.32;98009.45;1808197;79;21032;-43
2021/01/28 01:46:13;;;;;;;13.40;10.32;;;;;;;1.55;71.39;98009.03;1808116;79;20976;-43
2021/01/28 01:48:49;;;;;;;12.70;9.93;;;;;;;1.54;71.45;98007.46;1777440;79;21600;-43
2021/01/28 01:51:29;;;;;;;14.00;10.30;;;;;;;1.52;71.49;98011.01;1807845;79;20992;-44
2021/01/28 01:54:04;;;;;;;13.40;10.25;;;;;;;1.51;71.54;98006.22;1808196;79;21448;-43
2021/01/28 01:56:39;;;;;;;13.93;10.13;;;;;;;1.48;71.61;97996.77;1808105;79;20968;-43
2021/01/28 01:59:24;;;;;;;13.85;9.55;;;;;;;1.44;71.76;97985.20;1808177;79;20992;-43
2021/01/28 02:02:16;;;;;;;13.00;9.78;;;;;;;1.42;71.80;97977.52;1808049;79;21115;-43
2021/01/28 02:05:14;;;;;;;10.88;8.45;;;;;;;1.46;71.81;97962.92;1808264;79;21118;-43
2021/01/28 02:07:48;;;;;;;11.45;9.15;;;;;;;1.52;71.60;97962.94;1752328;79;21832;-43
2021/01/28 02:10:36;;;;;;;13.18;9.38;;;;;;;1.46;71.71;97972.27;1808176;79;20968;-43
2021/01/28 02:13:24;;;;;;;12.00;9.08;;;;;;;1.40;71.93;97968.28;1808217;79;20972;-43
2021/01/28 02:15:54;;;;;;;10.93;8.63;;;;;;;1.36;72.06;97960.70;1808039;79;21170;-43
2021/01/28 02:18:23;;;;;;;11.55;8.58;;;;;;;1.40;72.07;97966.95;1808130;79;21174;-43
2021/01/28 02:21:19;;;;;;;11.65;9.13;;;;;;;1.40;72.03;97957.61;1805089;79;22153;-43
2021/01/28 02:24:22;;;;;;;10.88;8.55;;;;;;;1.39;72.11;97964.05;1774529;80;21157;-43
2021/01/28 02:26:51;;;;;;;13.25;9.38;;;;;;;1.34;72.28;97970.39;1775008;80;21150;-43
2021/01/28 02:29:29;;;;;;;11.48;8.65;;;;;;;1.33;72.46;97958.14;1823126;78;22738;-43
2021/01/28 02:31:58;;;;;;;11.93;8.78;;;;;;;1.30;72.48;97956.94;1782432;79;21372;-43
2021/01/28 02:34:27;;;;;;;9.75;8.25;;;;;;;1.33;72.43;97956.81;1816491;79;21256;-43
2021/01/28 02:37:00;;;;;;;10.88;8.30;;;;;;;1.42;72.28;97972.72;1816147;79;21004;-43
2021/01/28 02:39:35;;;;;;;11.85;8.65;;;;;;;1.44;72.27;97973.18;1815954;79;21051;-43
2021/01/28 02:42:20;;;;;;;;;;;;;;;1.43;72.25;97962.27;1818635;79;20991;-43
2021/01/28 02:44:51;;;;;;;11.80;8.45;;;;;;;1.42;72.23;97961.48;1814667;79;20498;-43
2021/01/28 02:47:26;;;;;;;9.73;7.40;;;;;;;1.41;72.35;97967.94;1768653;80;21163;-44
2021/01/28 02:49:59;;;;;;;9.08;7.10;;;;;;;1.50;72.11;97958.50;1776421;80;21031;-43
2021/01/28 02:52:28;;;;;;;9.65;7.08;;;;;;;1.54;72.07;97958.05;1780328;80;21630;-43
2021/01/28 02:54:58;;;;;;;9.68;7.47;;;;;;;1.56;71.95;97951.80;1779986;80;21155;-43
2021/01/28 02:57:26;;;;;;;9.15;7.37;;;;;;;1.56;71.86;97958.48;1780117;80;21190;-43
2021/01/28 02:59:56;;;;;;;;;;;;;;;1.52;71.94;97960.27;1751893;82;21396;-44
2021/01/28 03:02:24;;;;;;;9.83;7.28;;;;;;;1.57;71.91;97959.49;1764972;81;20560;-44
2021/01/28 03:04:53;;;;;;;9.18;7.53;;;;;;;1.53;72.08;97952.48;1780281;80;21597;-43
2021/01/28 03:07:23;;;;;;;9.43;7.37;;;;;;;1.54;72.09;97940.69;1779672;80;21074;-43
2021/01/28 03:09:51;;;;;;;9.00;7.55;;;;;;;1.50;72.04;97943.23;1780330;80;21616;-43
2021/01/28 03:12:28;;;;;;;10.03;7.28;;;;;;;1.48;72.15;97953.48;1778978;80;21358;-43
2021/01/28 03:14:59;;;;;;;10.10;7.28;;;;;;;1.54;72.20;97953.49;1778864;80;21166;-43
2021/01/28 03:17:27;;;;;;;9.00;6.83;;;;;;;1.61;72.06;97969.73;1780164;80;21114;-43
2021/01/28 03:20:01;;;;;;;7.92;7.10;;;;;;;1.61;71.92;97967.61;1779713;80;21130;-43
2021/01/28 03:22:31;;;;;;;8.55;6.37;;;;;;;1.57;71.93;97966.17;1780203;80;20965;-43
2021/01/28 03:25:07;;;;;;;8.08;6.20;;;;;;;1.62;71.90;97959.83;1713308;82;21397;-43
2021/01/28 03:27:35;;;;;;;8.85;7.00;;;;;;;1.67;71.78;97952.37;1780048;80;21588;-43
2021/01/28 03:30:10;;;;;;;8.68;6.58;;;;;;;1.70;71.65;97944.23;1778928;80;27195;-44
2021/01/28 03:32:38;;;;;;;8.43;6.95;;;;;;;1.66;71.61;97947.35;1775416;80;21008;-44
2021/01/28 03:35:08;;;;;;;8.23;6.55;;;;;;;1.62;71.72;97949.92;1775554;80;21558;-43
2021/01/28 03:37:36;;;;;;;8.13;6.60;;;;;;;1.64;71.75;97952.27;1775853;80;21581;-43
2021/01/28 03:40:06;;;;;;;7.75;6.28;;;;;;;1.69;71.65;97952.05;1774880;80;21179;-43
2021/01/28 03:42:35;;;;;;;8.55;6.75;;;;;;;1.70;71.56;97958.92;1742257;80;21602;-43
2021/01/28 03:45:06;;;;;;;9.53;6.95;;;;;;;1.65;71.60;97956.47;1774847;80;21158;-43
2021/01/28 03:47:34;;;;;;;9.68;6.25;;;;;;;1.62;71.70;97963.28;1774846;79;21135;-43
2021/01/28 03:50:20;;;;;;;8.25;6.08;;;;;;;1.60;71.71;97960.70;1774087;80;21406;-43
2021/01/28 03:52:51;;;;;;;8.28;5.78;;;;;;;1.63;71.72;97950.70;1713681;80;21134;-43
2021/01/28 03:55:24;;;;;;;8.00;5.87;;;;;;;1.70;71.60;97946.90;1773377;80;21174;-43
2021/01/28 03:57:53;;;;;;;8.70;6.58;;;;;;;1.70;71.50;97949.57;1774901;80;21059;-43
2021/01/28 04:00:28;;;;;;;7.90;6.30;;;;;;;1.67;71.51;97944.91;1774896;80;21534;-43
2021/01/28 04:03:00;;;;;;;8.93;5.42;;;;;;;1.68;71.58;97949.14;1774219;80;22293;-43
2021/01/28 04:05:36;;;;;;;7.25;5.85;;;;;;;1.62;71.68;97939.79;1748790;80;21163;-43
2021/01/28 04:08:23;;;;;;;8.35;5.85;;;;;;;1.61;71.68;97936.34;1774737;80;21040;-43
2021/01/28 04:10:58;;;;;;;5.95;5.35;;;;;;;1.59;71.73;97935.91;1770731;80;21028;-43
2021/01/28 04:13:27;;;;;;;5.87;5.08;;;;;;;1.68;71.64;97929.11;1774956;80;21564;-44
2021/01/28 04:15:56;;;;;;;7.00;5.30;;;;;;;1.69;71.59;97933.34;1774875;80;22452;-43
2021/01/28 04:18:26;;;;;;;5.95;5.17;;;;;;;1.65;71.54;97937.77;1774817;80;21167;-43
2021/01/28 04:20:56;;;;;;;7.55;5.20;;;;;;;1.60;71.71;97945.45;1774037;80;21162;-43
2021/01/28 04:23:24;;;;;;;6.20;5.22;;;;;;;1.64;71.87;97952.27;1774943;80;21656;-43
2021/01/28 04:26:06;;;;;;;7.47;5.55;;;;;;;1.72;71.73;97955.37;1772272;80;21162;-43
2021/01/28 04:28:36;;;;;;;;;;;;;;;1.74;71.76;97943.22;1774494;79;21345;-43
2021/01/28 04:31:15;;;;;;;5.78;4.83;;;;;;;1.76;71.63;97928.20;1782015;80;20213;-43
2021/01/28 04:33:45;;;;;;;6.60;5.00;;;;;;;1.65;71.81;97926.53;1786044;80;21609;-43
2021/01/28 04:36:23;;;;;;;5.92;4.55;;;;;;;1.66;71.84;97928.66;1785786;80;21123;-43
2021/01/28 04:38:53;;;;;;;6.15;4.30;;;;;;;1.73;71.68;97927.55;1785836;80;21104;-43
2021/01/28 04:41:26;;;;;;;6.33;4.90;;;;;;;1.76;71.56;97933.55;1785800;80;21253;-43
2021/01/28 04:43:57;;;;;;;5.28;4.78;;;;;;;1.79;71.52;97942.80;1785851;80;21164;-43
2021/01/28 04:46:50;;;;;;;6.60;5.10;;;;;;;1.70;71.47;97941.55;1785899;80;20993;-43
2021/01/28 04:49:37;;;;;;;6.72;4.35;;;;;;;1.70;71.60;97946.90;1785867;80;21151;-43
2021/01/28 04:52:24;;;;;;;5.17;4.45;;;;;;;1.71;71.76;97951.14;1786712;80;21198;-43
2021/01/28 04:55:12;;;;;;;6.42;4.10;;;;;;;1.81;71.59;97936.54;1749752;82;21229;-43
2021/01/28 04:57:51;;;;;;;6.00;4.47;;;;;;;1.81;71.23;97931.98;1831622;78;22755;-44
2021/01/28 05:00:21;;;;;;;6.25;4.50;;;;;;;1.81;71.23;97931.98;1734664;82;20993;-43
2021/01/28 05:03:16;;;;;;;6.33;4.53;;;;;;;1.80;71.60;97921.62;1742097;82;21358;-43
2021/01/28 05:05:48;;;;;;;5.47;4.40;;;;;;;1.76;71.63;97918.84;1733358;82;21017;-43
2021/01/28 05:08:30;;;;;;;5.83;4.40;;;;;;;1.78;71.57;97923.31;1739426;82;21028;-43
2021/01/28 05:12:00;;;;;;;5.72;4.50;;;;;;;1.87;71.59;97921.84;1842329;76;22782;-43
2021/01/28 05:14:33;;;;;;;7.10;4.80;;;;;;;1.80;71.56;97919.73;1743925;82;21037;-43
2021/01/28 05:17:12;;;;;;;6.25;4.92;;;;;;;1.78;71.52;97911.28;1763357;81;21291;-43
2021/01/28 05:20:00;;;;;;;5.37;4.42;;;;;;;1.77;71.62;97912.39;1718071;81;20992;-43
2021/01/28 05:22:47;;;;;;;5.45;4.50;;;;;;;1.75;71.76;97911.94;1718317;81;21071;-43
2021/01/28 05:25:29;;;;;;;;;;;;;;;1.74;71.83;97907.73;1696741;82;21032;-43
2021/01/28 05:28:34;;;;;;;6.00;3.90;;;;;;;1.76;71.66;97898.81;1763265;80;20152;-44
2021/01/28 05:31:32;;;;;;;5.05;4.10;;;;;;;1.77;71.84;97883.01;1835912;78;23293;-43
2021/01/28 05:34:08;;;;;;;5.58;4.47;;;;;;;1.69;71.83;97872.66;1734359;79;21612;-43
2021/01/28 05:37:03;;;;;;;4.37;3.87;;;;;;;1.68;71.78;97879.69;1802226;79;21142;-43
2021/01/28 05:39:41;;;;;;;5.37;4.33;;;;;;;1.63;71.86;97868.68;1806890;79;21043;-43
2021/01/28 05:42:16;;;;;;;4.62;4.12;;;;;;;1.60;71.97;97871.22;1807535;79;21577;-43
2021/01/28 05:44:45;;;;;;;5.60;3.95;;;;;;;1.57;72.12;97873.25;1808149;79;20984;-43
2021/01/28 05:47:34;;;;;;;5.08;4.05;;;;;;;1.59;72.09;97876.37;1808048;79;21036;-43
2021/01/28 05:50:30;;;;;;;8.95;5.17;;;;;;;1.60;72.12;97876.02;1805137;79;21372;-43
2021/01/28 05:53:17;;;;;;;5.65;4.65;;;;;;;1.57;72.31;97884.70;1808153;79;20972;-44
2021/01/28 05:55:47;;;;;;;6.03;4.60;;;;;;;1.55;72.45;97890.93;1806847;79;21000;-43
2021/01/28 05:58:29;;;;;;;;;;;;;;;1.57;72.40;97898.06;1810447;79;21048;-43
2021/01/28 06:01:07;;;;;;;6.65;4.03;;;;;;;1.65;72.17;97900.38;1808379;79;20212;-43
2021/01/28 06:03:50;;;;;;;5.72;4.12;;;;;;;1.58;72.32;97902.30;1771798;79;22289;-43
2021/01/28 06:07:11;;;;;;;5.03;3.60;;;;;;;1.60;72.31;97908.06;1808103;79;21401;-43
2021/01/28 06:10:19;;;;;;;5.20;4.15;;;;;;;1.62;72.24;97905.06;1808146;79;21004;-43
2021/01/28 06:13:57;;;;;;;4.95;4.10;;;;;;;1.65;72.17;97904.38;1808007;79;21123;-43
2021/01/28 06:16:44;;;;;;;7.00;4.28;;;;;;;1.71;71.91;97897.70;1803443;79;21106;-44
2021/01/28 06:19:27;;;;;;;5.83;4.22;;;;;;;1.74;71.97;97906.40;1808234;79;22381;-43
2021/01/28 06:22:14;;;;;;;5.17;3.98;;;;;;;1.75;71.81;97910.05;1804500;79;21130;-44
2021/01/28 06:25:16;;;;;;;6.80;4.60;;;;;;;1.72;71.80;97917.97;1808315;79;21023;-43
2021/01/28 06:27:59;;;;;;;5.45;4.10;;;;;;;1.72;71.90;97923.31;1807439;79;21572;-43
2021/01/28 06:31:05;;;;;;;5.08;4.20;;;;;;;1.84;71.70;97923.86;1784757;79;21627;-43
2021/01/28 06:34:09;;;;;;;5.70;4.42;;;;;;;1.88;71.53;97920.73;1778315;80;21375;-43
2021/01/28 06:37:36;;;;;;;9.35;4.75;;;;;;;1.88;71.56;97918.06;1782459;80;21138;-43
2021/01/28 06:40:20;;;;;;;5.22;4.03;;;;;;;1.84;71.50;97913.92;1766423;80;21169;-43
2021/01/28 06:42:58;;;;;;;4.65;3.65;;;;;;;1.87;71.32;97909.27;1776980;80;21028;-43
2021/01/28 06:45:32;;;;;;;;;;;;;;;1.95;71.03;97902.22;1779186;80;21148;-43
2021/01/28 06:48:21;;;;;;;5.03;3.77;;;;;;;1.92;71.06;97902.91;1781388;80;21197;-43
2021/01/28 06:51:29;;;;;;;4.47;3.40;;;;;;;1.79;71.34;97894.15;1780390;80;21003;-44
2021/01/28 06:54:06;;;;;;;4.37;3.47;;;;;;;1.77;71.37;97897.70;1727967;80;21201;-45
2021/01/28 06:57:04;;;;;;;4.70;3.50;;;;;;;1.81;71.43;97890.56;1782070;80;21158;-44
2021/01/28 07:00:29;;;;;;;4.50;3.40;;;;;;;1.87;71.29;97879.87;1744169;81;21169;-44
2021/01/28 07:03:18;;;;;;;5.15;4.00;;;;;;;1.86;71.22;97880.20;1714812;82;21391;-45
2021/01/28 07:06:30;;;;;;;5.87;4.50;;;;;;;1.84;71.30;97877.86;1712420;83;21221;-44
2021/01/28 07:09:32;;;;;;;7.55;3.92;;;;;;;1.84;71.38;97876.52;1782031;80;21106;-45
2021/01/28 07:12:04;;;;;;;5.55;4.15;;;;;;;1.88;71.26;97862.73;1781371;80;21146;-44
2021/01/28 07:14:50;;;;;;;5.10;3.80;;;;;;;1.57;70.92;97804.58;1782016;80;21173;-44
2021/01/28 07:17:49;;;;;;;5.37;3.80;;;;;;;1.90;70.96;97864.48;1750590;80;21394;-45
2021/01/28 07:20:45;;;;;;;4.50;3.87;;;;;;;1.87;71.00;97865.17;1782094;80;21047;-45
2021/01/28 07:23:35;;;;;;;5.80;3.40;;;;;;;1.84;71.13;97861.83;1776701;80;21055;-44
2021/01/28 07:26:15;;;;;;;5.30;3.20;;;;;;;1.89;71.08;97860.84;1781960;80;21126;-44
2021/01/28 07:28:45;;;;;;;6.40;3.50;;;;;;;1.90;71.00;97858.36;1782009;79;21087;-45
2021/01/28 07:31:44;;;;;;;4.37;3.60;;;;;;;1.89;71.17;97862.17;1770787;79;21180;-45
2021/01/28 07:34:15;;;;;;;4.37;3.33;;;;;;;1.86;71.17;97851.59;1764919;81;21005;-44
2021/01/28 07:36:52;;;;;;;3.83;3.40;;;;;;;1.83;71.35;97857.62;1765057;81;21036;-45
2021/01/28 07:39:39;;;;;;;4.45;3.80;;;;;;;1.77;71.59;97853.62;1765160;81;21150;-45
2021/01/28 07:42:29;;;;;;;3.25;2.92;;;;;;;1.76;71.67;97842.70;1689681;83;21172;-45
2021/01/28 07:45:32;;;;;;;4.97;3.83;;;;;;;1.77;71.64;97844.27;1765179;81;21255;-45
2021/01/28 07:48:27;;;;;;;4.25;3.77;;;;;;;1.85;71.59;97847.35;1764887;81;21177;-45
2021/01/28 07:51:39;;;;;;;4.45;3.70;;;;;;;1.85;71.49;97843.34;1763125;81;21127;-45
2021/01/28 07:54:31;;;;;;;3.60;3.30;;;;;;;1.82;71.54;97842.70;1765032;80;21158;-44
2021/01/28 07:57:06;;;;;;;3.47;3.17;;;;;;;1.78;71.60;97840.48;1764979;80;21087;-45
2021/01/28 07:59:51;;;;;;;3.30;3.00;;;;;;;1.83;71.46;97842.92;1765001;81;21280;-45
2021/01/28 08:02:30;;;;;;;3.45;3.08;;;;;;;1.88;71.34;97851.26;1764873;81;21465;-45
2021/01/28 08:05:12;;;;;;;4.00;3.60;;;;;;;1.85;71.38;97858.04;1765101;80;21143;-44
2021/01/28 08:07:47;;;;;;;4.25;3.65;;;;;;;1.88;71.19;97865.40;1765015;80;20973;-45
2021/01/28 08:10:30;;;;;;;4.33;2.98;;;;;;;1.87;71.29;97867.84;1765053;81;21175;-45
2021/01/28 08:13:06;;;;;;;4.55;3.22;;;;;;;1.88;71.12;97857.94;1765179;81;22201;-45
2021/01/28 08:15:47;;;;;;;3.70;3.30;;;;;;;1.83;71.23;97860.29;1765000;81;21179;-45
2021/01/28 08:18:30;;;;;;;4.15;3.12;;;;;;;1.86;71.29;97854.81;1764944;80;21133;-45
2021/01/28 08:21:20;;;;;;;4.37;3.70;;;;;;;1.97;71.18;97862.59;1765100;81;21016;-44
2021/01/28 08:23:51;;;;;;;4.45;3.55;;;;;;;2.02;71.24;97871.14;1765064;81;21138;-44
2021/01/28 08:26:31;;;;;;;3.62;3.33;;;;;;;2.05;71.10;97869.13;1764920;81;21356;-45
2021/01/28 08:29:21;;;;;;;5.42;3.98;;;;;;;2.05;70.98;97875.80;1764524;79;21150;-45
2021/01/28 08:31:53;;;;;;;4.15;3.30;;;;;;;2.03;70.79;97882.03;1773485;80;21198;-45
2021/01/28 08:34:25;;;;;;;5.37;3.85;;;;;;;2.01;70.90;97874.93;1776180;80;20991;-45
2021/01/28 08:37:05;;;;;;;3.80;3.35;;;;;;;2.02;70.82;97877.83;1776197;80;21127;-45
2021/01/28 08:39:35;;;;;;;3.92;3.27;;;;;;;2.09;70.73;97872.66;1750274;80;22370;-45
2021/01/28 08:42:13;;;;;;;2.97;2.37;;;;;;;2.15;70.47;97867.30;1776389;80;21142;-45
2021/01/28 08:44:44;;;;;;;4.83;3.70;;;;;;;2.14;70.57;97871.09;1776209;80;21134;-45
2021/01/28 08:47:24;;;;;;;5.05;4.00;;;;;;;2.11;70.74;97869.66;1776227;80;21648;-45
2021/01/28 08:50:08;;;;;;;4.80;3.83;;;;;;;2.13;70.99;97865.52;1776179;80;21131;-45
2021/01/28 08:52:36;;;;;;;3.90;3.50;;;;;;;2.17;70.93;97858.39;1772579;80;21380;-45
2021/01/28 08:55:21;;;;;;;4.42;3.67;;;;;;;2.25;70.78;97852.67;1776076;80;21577;-45
2021/01/28 08:57:51;;;;;;;4.35;3.50;;;;;;;2.31;70.69;97846.52;1794197;79;21509;-44
2021/01/28 09:00:21;;;;;;;5.87;3.45;;;;;;;2.32;70.73;97846.75;1808093;79;21596;-45
2021/01/28 09:02:52;;;;;;;4.37;3.70;;;;;;;2.31;70.76;97831.81;1808086;78;21141;-45
2021/01/28 09:05:30;;;;;;;6.33;4.65;;;;;;;2.29;70.93;97831.36;1807998;79;21275;-45
2021/01/28 09:08:09;;;;;;;5.08;3.95;;;;;;;2.30;70.98;97822.23;1808090;79;21122;-45
2021/01/28 09:10:40;;;;;;;4.40;3.87;;;;;;;2.35;71.12;97822.77;1781076;79;21409;-45
2021/01/28 09:13:26;;;;;;;4.65;3.80;;;;;;;2.43;70.76;97833.08;1807912;78;20980;-45
2021/01/28 09:16:15;;;;;;;9.50;3.95;;;;;;;2.40;70.74;97831.88;1808032;79;21580;-44
2021/01/28 09:18:49;;;;;;;5.58;3.75;;;;;;;2.33;70.83;97839.70;1808100;78;21933;-45
2021/01/28 09:21:21;;;;;;;4.80;3.92;;;;;;;2.30;71.17;97832.93;1807825;79;21102;-45
2021/01/28 09:24:21;;;;;;;5.85;3.87;;;;;;;2.32;71.32;97834.16;1808024;79;21091;-45
2021/01/28 09:27:18;;;;;;;3.70;3.15;;;;;;;2.40;71.19;97831.88;1807971;79;21414;-44
2021/01/28 09:29:49;;;;;;;4.35;3.77;;;;;;;2.49;70.97;97831.71;1739763;80;21201;-45
2021/01/28 09:32:30;;;;;;;4.72;3.80;;;;;;;2.57;71.09;97821.40;1809070;78;22728;-43
2021/01/28 09:35:12;;;;;;;7.85;5.42;;;;;;;2.57;71.09;97821.40;1784088;80;20975;-43
2021/01/28 09:37:45;;;;;;;5.78;5.00;;;;;;;2.61;70.50;97811.59;1784017;80;21608;-43
2021/01/28 09:40:29;;;;;;;6.10;4.10;;;;;;;2.54;70.45;97806.05;1783721;80;21027;-43
2021/01/28 09:43:28;;;;;;;5.95;3.95;;;;;;;2.55;70.57;97808.39;1755615;80;20979;-43
2021/01/28 09:46:20;;;;;;;3.92;3.52;;;;;;;2.65;70.43;97811.11;1784231;80;21655;-43
2021/01/28 09:48:53;;;;;;;4.35;3.62;;;;;;;2.68;70.21;97806.39;1784154;80;21623;-43
2021/01/28 09:51:35;;;;;;;4.55;3.45;;;;;;;2.62;70.33;97810.45;1783968;80;21253;-44
2021/01/28 09:54:19;;;;;;;4.87;3.70;;;;;;;2.61;70.41;97812.92;1784028;80;21130;-44
2021/01/28 09:56:50;;;;;;;3.70;3.33;;;;;;;2.61;70.70;97817.69;1753133;80;21007;-43
2021/01/28 09:59:19;;;;;;;4.37;3.10;;;;;;;2.64;70.39;97813.56;1784122;80;21063;-43
2021/01/28 10:01:48;;;;;;;4.70;3.52;;;;;;;2.68;70.39;97813.09;1784201;80;21540;-43
2021/01/28 10:04:18;;;;;;;;;;;;;;;2.78;70.15;97813.13;1754764;80;21215;-44
2021/01/28 10:06:48;;;;;;;3.98;3.52;;;;;;;2.80;70.05;97805.55;1783966;80;20276;-43
2021/01/28 10:09:16;;;;;;;4.17;3.35;;;;;;;2.72;70.15;97801.91;1783966;80;21141;-43
2021/01/28 10:11:45;;;;;;;4.37;3.42;;;;;;;2.75;70.26;97801.23;1783785;80;21130;-43
2021/01/28 10:14:14;;;;;;;3.58;3.12;;;;;;;2.80;70.11;97800.97;1783994;80;21086;-43
2021/01/28 10:16:42;;;;;;;3.42;2.77;;;;;;;2.79;70.11;97803.43;1784056;80;21191;-43
2021/01/28 10:19:12;;;;;;;3.50;3.00;;;;;;;2.81;70.29;97802.50;1784055;80;20960;-43
2021/01/28 10:21:41;;;;;;;3.67;3.20;;;;;;;2.91;69.86;97801.98;1783882;80;21152;-43
2021/01/28 10:24:10;;;;;;;4.30;3.53;;;;;;;2.92;69.79;97798.19;1784107;80;21027;-43
2021/01/28 10:26:38;;;;;;;3.70;3.30;;;;;;;2.92;69.89;97792.05;1783897;80;21333;-43
2021/01/28 10:29:07;;;;;;;5.55;4.15;;;;;;;2.89;69.86;97799.45;1792560;79;21429;-43
2021/01/28 10:31:35;;;;;;;5.90;4.00;;;;;;;2.85;70.03;97803.39;1810078;79;21110;-43
2021/01/28 10:34:04;;;;;;;5.03;3.37;;;;;;;2.89;69.85;97804.25;1804912;79;21008;-43
2021/01/28 10:36:34;;;;;;;3.92;3.20;;;;;;;2.87;69.44;97803.80;1804994;78;21166;-43
2021/01/28 10:39:04;;;;;;;3.25;2.52;;;;;;;2.85;69.65;97798.59;1805064;79;21043;-43
2021/01/28 10:41:33;;;;;;;3.35;2.83;;;;;;;2.90;69.70;97802.34;1804971;79;21389;-43
2021/01/28 10:44:05;;;;;;;4.17;2.90;;;;;;;2.88;69.56;97802.69;1804460;79;21680;-43
2021/01/28 10:46:34;;;;;;;3.22;2.67;;;;;;;2.86;69.57;97799.56;1804425;79;21107;-43
2021/01/28 10:49:04;;;;;;;4.00;3.00;;;;;;;2.83;69.67;97800.27;1804468;79;21134;-43
2021/01/28 10:51:35;;;;;;;3.00;2.70;;;;;;;2.74;69.72;97809.03;1804487;79;21135;-43
2021/01/28 10:54:06;;;;;;;3.95;2.75;;;;;;;2.70;70.22;97802.05;1804451;79;21305;-43
2021/01/28 10:56:34;;;;;;;4.70;2.95;;;;;;;2.80;70.15;97800.20;1804262;79;21174;-43
2021/01/28 10:59:03;;;;;;;3.50;2.98;;;;;;;2.82;70.09;97799.27;1804486;78;21297;-43
2021/01/28 11:01:34;;;;;;;5.17;3.35;;;;;;;2.83;70.22;97798.16;1804612;78;21598;-43
2021/01/28 11:04:04;;;;;;;3.70;3.00;;;;;;;2.82;70.07;97794.70;1780659;79;21170;-43
2021/01/28 11:06:34;;;;;;;4.22;3.27;;;;;;;2.78;70.12;97790.38;1804621;78;22293;-43
2021/01/28 11:09:02;;;;;;;2.85;2.40;;;;;;;2.71;70.25;97782.95;1804355;79;21099;-43
2021/01/28 11:11:30;;;;;;;3.00;2.42;;;;;;;2.72;70.41;97780.50;1804457;79;21585;-43
2021/01/28 11:14:00;;;;;;;3.30;2.70;;;;;;;2.80;70.02;97770.76;1804381;79;21149;-43
2021/01/28 11:16:34;;;;;;;3.10;2.80;;;;;;;2.74;69.89;97775.59;1804477;79;21182;-44
2021/01/28 11:19:05;;;;;;;2.40;2.12;;;;;;;2.63;70.07;97775.88;1804609;79;22271;-44
2021/01/28 11:21:34;;;;;;;2.80;2.40;;;;;;;2.55;70.50;97776.84;1804430;79;21170;-43
2021/01/28 11:24:05;;;;;;;2.65;2.30;;;;;;;2.53;70.61;97779.08;1804460;79;20972;-43
2021/01/28 11:26:33;;;;;;;2.90;2.50;;;;;;;2.52;70.60;97780.19;1804526;79;21656;-43
2021/01/28 11:29:04;;;;;;;3.47;2.80;;;;;;;2.52;70.44;97781.53;1806358;79;21142;-43
2021/01/28 11:31:33;;;;;;;3.65;2.98;;;;;;;2.45;70.77;97776.02;1816106;78;21396;-43
2021/01/28 11:34:02;;;;;;;3.33;2.92;;;;;;;2.43;70.98;97763.53;1821844;78;21149;-43
2021/01/28 11:36:31;;;;;;;3.95;3.55;;;;;;;2.45;71.13;97760.75;1821554;78;21162;-44
2021/01/28 11:39:00;;;;;;;3.27;2.92;;;;;;;2.44;71.05;97756.52;1821680;78;21573;-43
2021/01/28 11:41:28;;;;;;;3.95;3.15;;;;;;;2.44;71.05;97759.19;1821759;78;21150;-43
2021/01/28 11:43:57;;;;;;;2.98;2.67;;;;;;;2.52;71.12;97755.56;1821494;78;21833;-43
2021/01/28 11:46:27;;;;;;;4.62;2.75;;;;;;;2.63;71.02;97763.84;1821534;78;21136;-44
2021/01/28 11:48:56;;;;;;;4.53;3.00;;;;;;;2.69;70.36;97761.69;1821545;78;21169;-43
2021/01/28 11:51:24;;;;;;;3.37;2.92;;;;;;;2.66;70.36;97761.84;1821417;78;21043;-43
2021/01/28 11:53:56;;;;;;;3.45;2.72;;;;;;;2.61;70.37;97756.16;1819989;78;21031;-44
2021/01/28 11:56:25;;;;;;;3.25;2.80;;;;;;;2.60;70.23;97752.51;1821601;78;22114;-43
2021/01/28 11:58:53;;;;;;;2.80;2.47;;;;;;;2.60;70.19;97753.84;1821426;78;21177;-43
2021/01/28 12:01:21;;;;;;;3.00;2.60;;;;;;;2.58;70.23;97748.83;1821439;78;21043;-43
2021/01/28 12:03:50;;;;;;;3.58;2.70;;;;;;;2.53;70.41;97746.42;1821483;78;21293;-43
2021/01/28 12:06:20;;;;;;;3.30;2.90;;;;;;;2.52;70.24;97753.44;1821651;78;21608;-43
2021/01/28 12:08:50;;;;;;;3.17;2.87;;;;;;;2.47;70.37;97747.05;1821846;78;22127;-44
2021/01/28 12:11:19;;;;;;;3.83;3.33;;;;;;;2.45;70.40;97749.27;1821271;78;21845;-44
2021/01/28 12:13:50;;;;;;;;;;;;;;;2.46;70.42;97741.47;1823881;78;21153;-43
2021/01/28 12:16:18;;;;;;;2.90;2.60;;;;;;;2.50;70.31;97731.07;1821508;78;20198;-43
2021/01/28 12:18:46;;;;;;;3.87;3.10;;;;;;;2.39;70.59;97730.59;1821471;78;21114;-43
2021/01/28 12:21:15;;;;;;;3.60;3.20;;;;;;;2.33;70.79;97727.95;1821784;78;21545;-43
2021/01/28 12:23:44;;;;;;;3.60;3.30;;;;;;;2.27;70.75;97732.02;1821562;78;21000;-44
2021/01/28 12:26:13;;;;;;;3.35;2.80;;;;;;;2.23;71.06;97729.23;1821696;78;21126;-43
2021/01/28 12:28:41;;;;;;;2.90;2.60;;;;;;;2.26;70.99;97714.42;1820983;78;21140;-43